sensor_id;sensor_type;location;lat;lon;timestamp;P1;P2;P0
34240;PMS7003;20503;50.200;19.508;2023-06-19T00:01:17;8;8;6
34240;PMS7003;20503;50.200;19.508;2023-06-19T00:06:25;15;10;8
34240;PMS7003;20503;50.200;19.508;2023-06-19T00:11:33;12;11;8
34240;PMS7003;20503;50.200;19.508;2023-06-19T00:16:41;13;12;8
34240;PMS7003;20503;50.200;19.508;2023-06-19T00:21:49;40;32;20
34240;PMS7003;20503;50.200;19.508;2023-06-19T00:26:57;11;9;6
34240;PMS7003;20503;50.200;19.508;2023-06-19T00:32:05;16;14;8
34240;PMS7003;20503;50.200;19.508;2023-06-19T00:37:12;19;18;12
34240;PMS7003;20503;50.200;19.508;2023-06-19T00:42:20;24;19;11
34240;PMS7003;20503;50.200;19.508;2023-06-19T00:47:28;22;19;12
34240;PMS7003;20503;50.200;19.508;2023-06-19T00:52:36;16;16;12
34240;PMS7003;20503;50.200;19.508;2023-06-19T00:57:44;15;13;9
34240;PMS7003;20503;50.200;19.508;2023-06-19T01:02:50;16;15;9
34240;PMS7003;20503;50.200;19.508;2023-06-19T01:13:15;16;13;10
34240;PMS7003;20503;50.200;19.508;2023-06-19T01:18:22;13;8;6
34240;PMS7003;20503;50.200;19.508;2023-06-19T01:23:26;11;10;8
34240;PMS7003;20503;50.200;19.508;2023-06-19T01:28:29;10;10;6
34240;PMS7003;20503;50.200;19.508;2023-06-19T01:33:37;10;10;6
34240;PMS7003;20503;50.200;19.508;2023-06-19T01:38:45;11;10;6
34240;PMS7003;20503;50.200;19.508;2023-06-19T01:43:53;12;10;6
34240;PMS7003;20503;50.200;19.508;2023-06-19T01:49:00;10;8;6
34240;PMS7003;20503;50.200;19.508;2023-06-19T01:54:08;12;10;7
34240;PMS7003;20503;50.200;19.508;2023-06-19T01:59:15;9;7;6
34240;PMS7003;20503;50.200;19.508;2023-06-19T02:04:23;10;9;6
34240;PMS7003;20503;50.200;19.508;2023-06-19T02:09:31;12;9;6
34240;PMS7003;20503;50.200;19.508;2023-06-19T02:14:38;8;7;5
34240;PMS7003;20503;50.200;19.508;2023-06-19T02:19:46;10;8;6
34240;PMS7003;20503;50.200;19.508;2023-06-19T02:24:53;9;9;6
34240;PMS7003;20503;50.200;19.508;2023-06-19T02:30:01;14;10;7
34240;PMS7003;20503;50.200;19.508;2023-06-19T02:35:09;10;7;5
34240;PMS7003;20503;50.200;19.508;2023-06-19T02:40:16;11;10;6
34240;PMS7003;20503;50.200;19.508;2023-06-19T02:45:23;9;8;6
34240;PMS7003;20503;50.200;19.508;2023-06-19T02:50:31;10;8;6
34240;PMS7003;20503;50.200;19.508;2023-06-19T02:55:38;10;10;6
34240;PMS7003;20503;50.200;19.508;2023-06-19T03:00:46;13;7;6
34240;PMS7003;20503;50.200;19.508;2023-06-19T03:05:54;10;8;6
34240;PMS7003;20503;50.200;19.508;2023-06-19T03:11:02;11;8;6
34240;PMS7003;20503;50.200;19.508;2023-06-19T03:16:09;10;8;6
34240;PMS7003;20503;50.200;19.508;2023-06-19T03:21:17;12;10;7
34240;PMS7003;20503;50.200;19.508;2023-06-19T03:26:25;9;9;6
34240;PMS7003;20503;50.200;19.508;2023-06-19T03:31:33;9;8;6
34240;PMS7003;20503;50.200;19.508;2023-06-19T03:36:40;11;8;7
34240;PMS7003;20503;50.200;19.508;2023-06-19T03:41:48;8;8;7
34240;PMS7003;20503;50.200;19.508;2023-06-19T03:46:55;9;7;6
34240;PMS7003;20503;50.200;19.508;2023-06-19T03:52:03;12;10;6
34240;PMS7003;20503;50.200;19.508;2023-06-19T03:57:10;11;9;7
34240;PMS7003;20503;50.200;19.508;2023-06-19T04:02:19;9;8;6
34240;PMS7003;20503;50.200;19.508;2023-06-19T04:07:27;9;9;6
34240;PMS7003;20503;50.200;19.508;2023-06-19T04:12:35;11;8;6
34240;PMS7003;20503;50.200;19.508;2023-06-19T04:17:42;10;8;7
34240;PMS7003;20503;50.200;19.508;2023-06-19T04:22:50;10;8;7
34240;PMS7003;20503;50.200;19.508;2023-06-19T04:27:58;9;8;5
34240;PMS7003;20503;50.200;19.508;2023-06-19T04:33:06;8;8;6
34240;PMS7003;20503;50.200;19.508;2023-06-19T04:38:13;10;8;6
34240;PMS7003;20503;50.200;19.508;2023-06-19T04:43:21;11;8;6
34240;PMS7003;20503;50.200;19.508;2023-06-19T04:48:29;10;8;6
34240;PMS7003;20503;50.200;19.508;2023-06-19T04:53:36;12;10;8
34240;PMS7003;20503;50.200;19.508;2023-06-19T04:58:44;9;9;7
34240;PMS7003;20503;50.200;19.508;2023-06-19T05:03:53;9;7;5
34240;PMS7003;20503;50.200;19.508;2023-06-19T05:09:00;9;9;8
34240;PMS7003;20503;50.200;19.508;2023-06-19T05:14:09;12;11;7
34240;PMS7003;20503;50.200;19.508;2023-06-19T05:19:16;13;12;7
34240;PMS7003;20503;50.200;19.508;2023-06-19T05:24:24;11;9;7
34240;PMS7003;20503;50.200;19.508;2023-06-19T05:29:31;9;7;6
34240;PMS7003;20503;50.200;19.508;2023-06-19T05:34:38;8;8;6
34240;PMS7003;20503;50.200;19.508;2023-06-19T05:39:46;9;8;6
34240;PMS7003;20503;50.200;19.508;2023-06-19T05:44:54;7;7;5
34240;PMS7003;20503;50.200;19.508;2023-06-19T05:50:01;5;5;4
34240;PMS7003;20503;50.200;19.508;2023-06-19T05:55:10;8;7;5
34240;PMS7003;20503;50.200;19.508;2023-06-19T06:00:17;10;8;6
34240;PMS7003;20503;50.200;19.508;2023-06-19T06:05:25;7;7;6
34240;PMS7003;20503;50.200;19.508;2023-06-19T06:10:32;9;7;6
34240;PMS7003;20503;50.200;19.508;2023-06-19T06:15:40;8;7;6
34240;PMS7003;20503;50.200;19.508;2023-06-19T06:20:47;4;4;3
34240;PMS7003;20503;50.200;19.508;2023-06-19T06:25:55;7;6;5
34240;PMS7003;20503;50.200;19.508;2023-06-19T06:31:03;7;7;5
34240;PMS7003;20503;50.200;19.508;2023-06-19T06:36:11;5;4;3
34240;PMS7003;20503;50.200;19.508;2023-06-19T06:41:18;7;7;5
34240;PMS7003;20503;50.200;19.508;2023-06-19T06:46:26;6;4;3
34240;PMS7003;20503;50.200;19.508;2023-06-19T06:51:34;7;6;5
34240;PMS7003;20503;50.200;19.508;2023-06-19T06:56:41;6;4;3
34240;PMS7003;20503;50.200;19.508;2023-06-19T07:01:49;6;5;5
34240;PMS7003;20503;50.200;19.508;2023-06-19T07:06:57;6;6;4
34240;PMS7003;20503;50.200;19.508;2023-06-19T07:12:05;6;6;5
34240;PMS7003;20503;50.200;19.508;2023-06-19T07:17:12;5;5;5
34240;PMS7003;20503;50.200;19.508;2023-06-19T07:22:20;7;7;5
34240;PMS7003;20503;50.200;19.508;2023-06-19T07:27:28;6;6;5
34240;PMS7003;20503;50.200;19.508;2023-06-19T07:32:35;7;7;5
34240;PMS7003;20503;50.200;19.508;2023-06-19T07:37:44;8;6;4
34240;PMS7003;20503;50.200;19.508;2023-06-19T07:47:12;7;6;5
34240;PMS7003;20503;50.200;19.508;2023-06-19T07:52:19;8;7;6
34240;PMS7003;20503;50.200;19.508;2023-06-19T07:57:27;8;8;6
34240;PMS7003;20503;50.200;19.508;2023-06-19T08:02:35;6;6;5
34240;PMS7003;20503;50.200;19.508;2023-06-19T08:07:43;6;6;5
34240;PMS7003;20503;50.200;19.508;2023-06-19T08:12:50;7;6;5
34240;PMS7003;20503;50.200;19.508;2023-06-19T08:17:58;9;7;6
34240;PMS7003;20503;50.200;19.508;2023-06-19T08:23:06;8;8;6
34240;PMS7003;20503;50.200;19.508;2023-06-19T08:28:13;10;9;7
34240;PMS7003;20503;50.200;19.508;2023-06-19T08:33:21;8;8;6
34240;PMS7003;20503;50.200;19.508;2023-06-19T08:38:30;10;9;7
34240;PMS7003;20503;50.200;19.508;2023-06-19T08:43:37;11;8;7
34240;PMS7003;20503;50.200;19.508;2023-06-19T08:48:44;8;7;6
34240;PMS7003;20503;50.200;19.508;2023-06-19T08:54:01;7;6;5
34240;PMS7003;20503;50.200;19.508;2023-06-19T08:59:11;7;7;6
34240;PMS7003;20503;50.200;19.508;2023-06-19T09:04:15;7;7;6
34240;PMS7003;20503;50.200;19.508;2023-06-19T09:09:17;7;7;6
34240;PMS7003;20503;50.200;19.508;2023-06-19T09:19:36;7;7;6
34240;PMS7003;20503;50.200;19.508;2023-06-19T09:24:40;9;7;7
34240;PMS7003;20503;50.200;19.508;2023-06-19T09:29:49;8;8;7
34240;PMS7003;20503;50.200;19.508;2023-06-19T09:34:55;9;6;5
34240;PMS7003;20503;50.200;19.508;2023-06-19T09:40:05;10;8;7
34240;PMS7003;20503;50.200;19.508;2023-06-19T09:45:12;11;8;7
34240;PMS7003;20503;50.200;19.508;2023-06-19T09:50:19;8;8;7
34240;PMS7003;20503;50.200;19.508;2023-06-19T09:55:27;8;8;7
34240;PMS7003;20503;50.200;19.508;2023-06-19T10:00:34;11;9;7
34240;PMS7003;20503;50.200;19.508;2023-06-19T10:05:42;10;6;5
34240;PMS7003;20503;50.200;19.508;2023-06-19T10:10:50;9;7;5
34240;PMS7003;20503;50.200;19.508;2023-06-19T10:15:57;8;8;6
34240;PMS7003;20503;50.200;19.508;2023-06-19T10:21:06;7;7;6
34240;PMS7003;20503;50.200;19.508;2023-06-19T10:26:17;9;8;7
34240;PMS7003;20503;50.200;19.508;2023-06-19T10:31:22;9;9;8
34240;PMS7003;20503;50.200;19.508;2023-06-19T10:36:30;10;8;7
34240;PMS7003;20503;50.200;19.508;2023-06-19T10:41:39;12;10;9
34240;PMS7003;20503;50.200;19.508;2023-06-19T10:46:46;8;8;7
34240;PMS7003;20503;50.200;19.508;2023-06-19T10:51:54;9;8;6
34240;PMS7003;20503;50.200;19.508;2023-06-19T10:57:05;10;9;6
34240;PMS7003;20503;50.200;19.508;2023-06-19T11:02:10;7;6;6
34240;PMS7003;20503;50.200;19.508;2023-06-19T11:07:18;8;8;7
34240;PMS7003;20503;50.200;19.508;2023-06-19T11:12:27;10;10;8
34240;PMS7003;20503;50.200;19.508;2023-06-19T11:17:35;9;9;8
34240;PMS7003;20503;50.200;19.508;2023-06-19T11:22:43;11;10;9
34240;PMS7003;20503;50.200;19.508;2023-06-19T11:27:50;8;8;7
34240;PMS7003;20503;50.200;19.508;2023-06-19T11:32:58;10;9;7
34240;PMS7003;20503;50.200;19.508;2023-06-19T11:38:07;7;7;5
34240;PMS7003;20503;50.200;19.508;2023-06-19T11:48:28;10;10;8
34240;PMS7003;20503;50.200;19.508;2023-06-19T11:53:31;12;10;9
34240;PMS7003;20503;50.200;19.508;2023-06-19T11:58:39;10;10;9
34240;PMS7003;20503;50.200;19.508;2023-06-19T12:03:47;9;8;7
34240;PMS7003;20503;50.200;19.508;2023-06-19T12:08:55;10;10;9
34240;PMS7003;20503;50.200;19.508;2023-06-19T12:14:04;10;9;7
34240;PMS7003;20503;50.200;19.508;2023-06-19T12:19:11;12;10;8
34240;PMS7003;20503;50.200;19.508;2023-06-19T12:24:18;11;10;8
34240;PMS7003;20503;50.200;19.508;2023-06-19T12:29:26;12;10;9
34240;PMS7003;20503;50.200;19.508;2023-06-19T12:34:33;9;9;8
34240;PMS7003;20503;50.200;19.508;2023-06-19T12:39:41;14;9;7
34240;PMS7003;20503;50.200;19.508;2023-06-19T12:44:48;12;10;9
34240;PMS7003;20503;50.200;19.508;2023-06-19T12:49:56;9;9;8
34240;PMS7003;20503;50.200;19.508;2023-06-19T12:55:04;9;9;7
34240;PMS7003;20503;50.200;19.508;2023-06-19T13:00:12;11;11;9
34240;PMS7003;20503;50.200;19.508;2023-06-19T13:05:18;12;9;8
34240;PMS7003;20503;50.200;19.508;2023-06-19T13:10:26;11;10;8
34240;PMS7003;20503;50.200;19.508;2023-06-19T13:15:33;11;9;8
34240;PMS7003;20503;50.200;19.508;2023-06-19T13:20:41;13;12;10
34240;PMS7003;20503;50.200;19.508;2023-06-19T13:25:48;37;32;22
34240;PMS7003;20503;50.200;19.508;2023-06-19T13:30:56;112;90;52
34240;PMS7003;20503;50.200;19.508;2023-06-19T13:36:04;76;59;33
34240;PMS7003;20503;50.200;19.508;2023-06-19T13:41:12;93;75;43
34240;PMS7003;20503;50.200;19.508;2023-06-19T13:46:20;68;51;31
34240;PMS7003;20503;50.200;19.508;2023-06-19T13:51:27;30;21;16
34240;PMS7003;20503;50.200;19.508;2023-06-19T13:56:35;53;41;26
34240;PMS7003;20503;50.200;19.508;2023-06-19T14:01:43;50;37;25
34240;PMS7003;20503;50.200;19.508;2023-06-19T14:06:51;76;55;33
34240;PMS7003;20503;50.200;19.508;2023-06-19T14:11:58;50;36;20
34240;PMS7003;20503;50.200;19.508;2023-06-19T14:17:06;42;32;22
34240;PMS7003;20503;50.200;19.508;2023-06-19T14:22:14;55;41;25
34240;PMS7003;20503;50.200;19.508;2023-06-19T14:27:23;34;29;17
34240;PMS7003;20503;50.200;19.508;2023-06-19T14:32:30;48;35;21
34240;PMS7003;20503;50.200;19.508;2023-06-19T14:37:39;109;84;41
34240;PMS7003;20503;50.200;19.508;2023-06-19T14:42:46;28;22;17
34240;PMS7003;20503;50.200;19.508;2023-06-19T14:47:54;16;14;10
34240;PMS7003;20503;50.200;19.508;2023-06-19T14:53:02;13;11;9
34240;PMS7003;20503;50.200;19.508;2023-06-19T14:58:09;11;11;9
34240;PMS7003;20503;50.200;19.508;2023-06-19T15:03:17;10;10;8
34240;PMS7003;20503;50.200;19.508;2023-06-19T15:08:24;10;10;9
34240;PMS7003;20503;50.200;19.508;2023-06-19T15:13:32;12;12;10
34240;PMS7003;20503;50.200;19.508;2023-06-19T15:18:39;13;11;9
34240;PMS7003;20503;50.200;19.508;2023-06-19T15:23:46;13;11;8
34240;PMS7003;20503;50.200;19.508;2023-06-19T15:28:54;10;10;8
34240;PMS7003;20503;50.200;19.508;2023-06-19T15:34:01;11;10;8
34240;PMS7003;20503;50.200;19.508;2023-06-19T15:39:09;12;10;7
34240;PMS7003;20503;50.200;19.508;2023-06-19T15:44:17;14;10;8
34240;PMS7003;20503;50.200;19.508;2023-06-19T15:49:24;13;13;10
34240;PMS7003;20503;50.200;19.508;2023-06-19T15:54:32;11;10;8
34240;PMS7003;20503;50.200;19.508;2023-06-19T15:59:39;11;10;9
34240;PMS7003;20503;50.200;19.508;2023-06-19T16:04:47;11;10;8
34240;PMS7003;20503;50.200;19.508;2023-06-19T16:09:54;11;11;9
34240;PMS7003;20503;50.200;19.508;2023-06-19T16:15:02;12;11;8
34240;PMS7003;20503;50.200;19.508;2023-06-19T16:20:09;11;11;8
34240;PMS7003;20503;50.200;19.508;2023-06-19T16:25:17;13;11;9
34240;PMS7003;20503;50.200;19.508;2023-06-19T16:30:24;13;11;10
34240;PMS7003;20503;50.200;19.508;2023-06-19T16:35:32;11;11;9
34240;PMS7003;20503;50.200;19.508;2023-06-19T16:40:39;11;11;9
34240;PMS7003;20503;50.200;19.508;2023-06-19T16:45:47;11;11;9
34240;PMS7003;20503;50.200;19.508;2023-06-19T16:50:54;12;12;9
34240;PMS7003;20503;50.200;19.508;2023-06-19T16:56:02;10;10;8
34240;PMS7003;20503;50.200;19.508;2023-06-19T17:01:10;14;12;10
34240;PMS7003;20503;50.200;19.508;2023-06-19T17:06:18;10;10;8
34240;PMS7003;20503;50.200;19.508;2023-06-19T17:11:25;12;12;9
34240;PMS7003;20503;50.200;19.508;2023-06-19T17:16:32;11;11;9
34240;PMS7003;20503;50.200;19.508;2023-06-19T17:21:40;16;15;12
34240;PMS7003;20503;50.200;19.508;2023-06-19T17:26:48;18;15;11
34240;PMS7003;20503;50.200;19.508;2023-06-19T17:31:57;14;12;10
34240;PMS7003;20503;50.200;19.508;2023-06-19T17:37:03;13;13;9
34240;PMS7003;20503;50.200;19.508;2023-06-19T17:42:11;15;12;9
34240;PMS7003;20503;50.200;19.508;2023-06-19T17:47:18;16;13;11
34240;PMS7003;20503;50.200;19.508;2023-06-19T17:52:26;16;15;10
34240;PMS7003;20503;50.200;19.508;2023-06-19T17:57:33;14;12;10
34240;PMS7003;20503;50.200;19.508;2023-06-19T18:02:41;13;10;8
34240;PMS7003;20503;50.200;19.508;2023-06-19T18:07:49;16;16;12
34240;PMS7003;20503;50.200;19.508;2023-06-19T18:12:57;33;27;16
34240;PMS7003;20503;50.200;19.508;2023-06-19T18:18:05;30;26;17
34240;PMS7003;20503;50.200;19.508;2023-06-19T18:23:13;18;14;10
34240;PMS7003;20503;50.200;19.508;2023-06-19T18:28:21;19;16;11
34240;PMS7003;20503;50.200;19.508;2023-06-19T18:33:29;17;17;12
34240;PMS7003;20503;50.200;19.508;2023-06-19T18:38:37;12;12;10
34240;PMS7003;20503;50.200;19.508;2023-06-19T18:43:45;13;12;9
34240;PMS7003;20503;50.200;19.508;2023-06-19T18:48:54;13;13;10
34240;PMS7003;20503;50.200;19.508;2023-06-19T18:54:02;17;13;9
34240;PMS7003;20503;50.200;19.508;2023-06-19T18:59:09;16;15;11
34240;PMS7003;20503;50.200;19.508;2023-06-19T19:04:17;14;12;10
34240;PMS7003;20503;50.200;19.508;2023-06-19T19:09:25;15;14;10
34240;PMS7003;20503;50.200;19.508;2023-06-19T19:14:33;16;14;10
34240;PMS7003;20503;50.200;19.508;2023-06-19T19:19:41;17;15;10
34240;PMS7003;20503;50.200;19.508;2023-06-19T19:24:50;16;15;10
34240;PMS7003;20503;50.200;19.508;2023-06-19T19:29:57;14;12;10
34240;PMS7003;20503;50.200;19.508;2023-06-19T19:35:05;19;15;12
34240;PMS7003;20503;50.200;19.508;2023-06-19T19:40:11;20;15;10
34240;PMS7003;20503;50.200;19.508;2023-06-19T19:45:19;20;16;12
34240;PMS7003;20503;50.200;19.508;2023-06-19T19:50:27;16;14;10
34240;PMS7003;20503;50.200;19.508;2023-06-19T19:55:34;23;20;13
34240;PMS7003;20503;50.200;19.508;2023-06-19T20:00:42;18;18;12
34240;PMS7003;20503;50.200;19.508;2023-06-19T20:05:51;21;17;13
34240;PMS7003;20503;50.200;19.508;2023-06-19T20:10:57;14;11;9
34240;PMS7003;20503;50.200;19.508;2023-06-19T20:16:07;12;11;8
34240;PMS7003;20503;50.200;19.508;2023-06-19T20:21:12;17;15;9
34240;PMS7003;20503;50.200;19.508;2023-06-19T20:26:22;14;14;9
34240;PMS7003;20503;50.200;19.508;2023-06-19T20:31:29;13;12;9
34240;PMS7003;20503;50.200;19.508;2023-06-19T20:36:37;18;15;9
34240;PMS7003;20503;50.200;19.508;2023-06-19T20:41:45;14;13;9
34240;PMS7003;20503;50.200;19.508;2023-06-19T20:46:52;12;11;9
34240;PMS7003;20503;50.200;19.508;2023-06-19T20:52:00;11;11;9
34240;PMS7003;20503;50.200;19.508;2023-06-19T20:57:08;13;11;8
34240;PMS7003;20503;50.200;19.508;2023-06-19T21:02:16;13;12;10
34240;PMS7003;20503;50.200;19.508;2023-06-19T21:07:23;16;13;9
34240;PMS7003;20503;50.200;19.508;2023-06-19T21:12:31;21;17;10
34240;PMS7003;20503;50.200;19.508;2023-06-19T21:17:39;16;14;10
34240;PMS7003;20503;50.200;19.508;2023-06-19T21:22:47;14;14;11
34240;PMS7003;20503;50.200;19.508;2023-06-19T21:27:54;15;14;10
34240;PMS7003;20503;50.200;19.508;2023-06-19T21:33:01;17;16;11
34240;PMS7003;20503;50.200;19.508;2023-06-19T21:38:10;15;15;9
34240;PMS7003;20503;50.200;19.508;2023-06-19T21:43:18;15;14;11
34240;PMS7003;20503;50.200;19.508;2023-06-19T21:48:25;18;15;11
34240;PMS7003;20503;50.200;19.508;2023-06-19T21:53:33;16;12;9
34240;PMS7003;20503;50.200;19.508;2023-06-19T21:58:40;18;14;11
34240;PMS7003;20503;50.200;19.508;2023-06-19T22:03:48;15;14;11
34240;PMS7003;20503;50.200;19.508;2023-06-19T22:08:56;17;14;10
34240;PMS7003;20503;50.200;19.508;2023-06-19T22:14:04;15;13;9
34240;PMS7003;20503;50.200;19.508;2023-06-19T22:19:12;19;17;10
34240;PMS7003;20503;50.200;19.508;2023-06-19T22:24:19;15;13;9
34240;PMS7003;20503;50.200;19.508;2023-06-19T22:29:27;17;15;11
34240;PMS7003;20503;50.200;19.508;2023-06-19T22:34:34;19;15;10
34240;PMS7003;20503;50.200;19.508;2023-06-19T22:39:42;19;17;10
34240;PMS7003;20503;50.200;19.508;2023-06-19T22:44:49;21;16;12
34240;PMS7003;20503;50.200;19.508;2023-06-19T22:49:57;16;16;13
34240;PMS7003;20503;50.200;19.508;2023-06-19T22:55:05;20;17;13
34240;PMS7003;20503;50.200;19.508;2023-06-19T23:00:12;13;13;9
34240;PMS7003;20503;50.200;19.508;2023-06-19T23:05:20;17;17;12
34240;PMS7003;20503;50.200;19.508;2023-06-19T23:10:27;16;15;11
34240;PMS7003;20503;50.200;19.508;2023-06-19T23:15:35;17;16;11
34240;PMS7003;20503;50.200;19.508;2023-06-19T23:20:43;18;15;11
34240;PMS7003;20503;50.200;19.508;2023-06-19T23:25:51;18;16;12
34240;PMS7003;20503;50.200;19.508;2023-06-19T23:30:58;18;15;10
34240;PMS7003;20503;50.200;19.508;2023-06-19T23:36:06;20;16;10
34240;PMS7003;20503;50.200;19.508;2023-06-19T23:41:14;15;13;10
34240;PMS7003;20503;50.200;19.508;2023-06-19T23:46:22;19;15;11
34240;PMS7003;20503;50.200;19.508;2023-06-19T23:51:29;17;17;12
34240;PMS7003;20503;50.200;19.508;2023-06-19T23:56:37;15;14;10
